SHU789 UIUU-UIII
Flight info
| Callsign | SHU789 |
|---|---|
| Flight time | 0h 29m |
| Altitude | 20000 |
| Route | PILUG5A PILUG B155 USONA USONA4B |
| Aircraft | A319/M-SDE3FGHIRWY/LB1 |
Departure
| Time | 2026-05-01 12:51 |
|---|---|
| Airport | Baikal International Airport (UIUU) |
Arrival
| Time | 2026-05-01 13:20 |
|---|---|
| Airport | Irkutsk International Airport (UIII) |
| Time | Latitude | Longitude | Altitude | Speed | Heading |
|---|---|---|---|---|---|
| 2026-05-01 12:30 | 51.80592 | 107.44465 | 1718 ft | 0 kts | 168° |
| 2026-05-01 12:42 | 51.80591 | 107.44466 | 1718 ft | 0 kts | 168° |
| 2026-05-01 12:43 | 51.80583 | 107.44468 | 1717 ft | 3 kts | 171° |
| 2026-05-01 12:43 | 51.80553 | 107.44452 | 1718 ft | 5 kts | 222° |
| 2026-05-01 12:43 | 51.80566 | 107.44404 | 1718 ft | 5 kts | 329° |
| 2026-05-01 12:43 | 51.80578 | 107.44398 | 1718 ft | 0 kts | 339° |
| 2026-05-01 12:44 | 51.80581 | 107.44397 | 1718 ft | 2 kts | 342° |
| 2026-05-01 12:44 | 51.80614 | 107.44381 | 1718 ft | 8 kts | 346° |
| 2026-05-01 12:44 | 51.80744 | 107.44300 | 1718 ft | 4 kts | 347° |
| 2026-05-01 12:45 | 51.80826 | 107.44191 | 1718 ft | 13 kts | 263° |
| 2026-05-01 12:45 | 51.80802 | 107.44025 | 1718 ft | 18 kts | 257° |
| 2026-05-01 12:45 | 51.80783 | 107.43838 | 1718 ft | 0 kts | 304° |
| 2026-05-01 12:46 | 51.80786 | 107.43838 | 1718 ft | 0 kts | 337° |
| 2026-05-01 12:46 | 51.80789 | 107.43841 | 1718 ft | 0 kts | 15° |
| 2026-05-01 12:46 | 51.80790 | 107.43847 | 1718 ft | 0 kts | 49° |
| 2026-05-01 12:46 | 51.80790 | 107.43864 | 1716 ft | 4 kts | 86° |
| 2026-05-01 12:47 | 51.80790 | 107.43931 | 1718 ft | 8 kts | 85° |
| 2026-05-01 12:47 | 51.80801 | 107.44052 | 1717 ft | 13 kts | 79° |
| 2026-05-01 12:47 | 51.80824 | 107.44228 | 1718 ft | 19 kts | 78° |
| 2026-05-01 12:47 | 51.80855 | 107.44460 | 1716 ft | 24 kts | 78° |
| 2026-05-01 12:48 | 51.80892 | 107.44748 | 1718 ft | 29 kts | 78° |
| 2026-05-01 12:48 | 51.80929 | 107.45029 | 1715 ft | 22 kts | 78° |
| 2026-05-01 12:48 | 51.80980 | 107.45202 | 1718 ft | 16 kts | 18° |
| 2026-05-01 12:48 | 51.81105 | 107.45181 | 1716 ft | 20 kts | 23° |
| 2026-05-01 12:49 | 51.81141 | 107.45405 | 1717 ft | 23 kts | 79° |
| 2026-05-01 12:49 | 51.81180 | 107.45682 | 1719 ft | 22 kts | 77° |
| 2026-05-01 12:49 | 51.81216 | 107.45934 | 1715 ft | 26 kts | 76° |
| 2026-05-01 12:49 | 51.81248 | 107.46206 | 1717 ft | 20 kts | 82° |
| 2026-05-01 12:50 | 51.81249 | 107.46442 | 1716 ft | 22 kts | 80° |
| 2026-05-01 12:50 | 51.81290 | 107.46394 | 1716 ft | 0 kts | 252° |
| 2026-05-01 12:50 | 51.81289 | 107.46391 | 1716 ft | 2 kts | 252° |
| 2026-05-01 12:50 | 51.81252 | 107.46083 | 1717 ft | 72 kts | 259° |
| 2026-05-01 12:51 | 51.81087 | 107.44818 | 1724 ft | 154 kts | 258° |
| 2026-05-01 12:51 | 51.80865 | 107.43071 | 2347 ft | 168 kts | 260° |
| 2026-05-01 12:51 | 51.80342 | 107.38843 | 3771 ft | 207 kts | 262° |
| 2026-05-01 12:52 | 51.80060 | 107.36531 | 4641 ft | 212 kts | 262° |
| 2026-05-01 12:52 | 51.79486 | 107.31814 | 6473 ft | 216 kts | 263° |
| 2026-05-01 12:52 | 51.79195 | 107.29429 | 7381 ft | 217 kts | 264° |
| 2026-05-01 12:53 | 51.78613 | 107.24666 | 9258 ft | 216 kts | 265° |
| 2026-05-01 12:53 | 51.78325 | 107.22323 | 10207 ft | 214 kts | 265° |
| 2026-05-01 12:53 | 51.78033 | 107.19975 | 11110 ft | 212 kts | 265° |
| 2026-05-01 12:54 | 51.77743 | 107.17664 | 12007 ft | 208 kts | 265° |
| 2026-05-01 12:54 | 51.77169 | 107.13193 | 13747 ft | 198 kts | 266° |
| 2026-05-01 12:54 | 51.77077 | 107.11754 | 14025 ft | 203 kts | 283° |
| 2026-05-01 12:55 | 51.79081 | 107.07141 | 14668 ft | 243 kts | 314° |
| 2026-05-01 12:55 | 51.80264 | 107.05014 | 14979 ft | 267 kts | 314° |
| 2026-05-01 12:55 | 51.81559 | 107.02683 | 15241 ft | 291 kts | 312° |
| 2026-05-01 12:56 | 51.82548 | 106.99679 | 15533 ft | 319 kts | 288° |
| 2026-05-01 12:56 | 51.82829 | 106.97263 | 15927 ft | 327 kts | 284° |
| 2026-05-01 12:56 | 51.83305 | 106.93662 | 16686 ft | 329 kts | 288° |
| 2026-05-01 12:56 | 51.83897 | 106.90062 | 17475 ft | 332 kts | 290° |
| 2026-05-01 12:57 | 51.84535 | 106.86453 | 18273 ft | 336 kts | 290° |
| 2026-05-01 12:57 | 51.85807 | 106.79109 | 19672 ft | 342 kts | 290° |
| 2026-05-01 12:57 | 51.86417 | 106.75378 | 20029 ft | 343 kts | 290° |
| 2026-05-01 12:58 | 51.87008 | 106.71655 | 20132 ft | 338 kts | 289° |
| 2026-05-01 12:58 | 51.87557 | 106.68111 | 20146 ft | 322 kts | 289° |
| 2026-05-01 12:58 | 51.88081 | 106.64700 | 20154 ft | 316 kts | 290° |
| 2026-05-01 12:59 | 51.89139 | 106.57911 | 20159 ft | 315 kts | 290° |
| 2026-05-01 12:59 | 51.89677 | 106.54480 | 20157 ft | 315 kts | 290° |
| 2026-05-01 12:59 | 51.90746 | 106.47613 | 20156 ft | 315 kts | 290° |
| 2026-05-01 13:00 | 51.91804 | 106.40728 | 20159 ft | 314 kts | 290° |
| 2026-05-01 13:00 | 51.92331 | 106.37293 | 20172 ft | 315 kts | 290° |
| 2026-05-01 13:01 | 51.93391 | 106.30413 | 20149 ft | 315 kts | 290° |
| 2026-05-01 13:01 | 51.93918 | 106.26977 | 20152 ft | 315 kts | 290° |
| 2026-05-01 13:01 | 51.94972 | 106.20066 | 20170 ft | 316 kts | 290° |
| 2026-05-01 13:02 | 51.95484 | 106.16606 | 20172 ft | 317 kts | 288° |
| 2026-05-01 13:07 | 52.02730 | 105.47989 | 13381 ft | 274 kts | 283° |
| 2026-05-01 13:07 | 52.03040 | 105.44944 | 13031 ft | 273 kts | 283° |
| 2026-05-01 13:07 | 52.03367 | 105.41937 | 12682 ft | 270 kts | 287° |
| 2026-05-01 13:08 | 52.03939 | 105.39068 | 12348 ft | 266 kts | 292° |
| 2026-05-01 13:08 | 52.04550 | 105.36242 | 11991 ft | 263 kts | 292° |
| 2026-05-01 13:08 | 52.05146 | 105.33447 | 11666 ft | 261 kts | 292° |
| 2026-05-01 13:08 | 52.05733 | 105.30667 | 11341 ft | 259 kts | 292° |
| 2026-05-01 13:09 | 52.06316 | 105.27902 | 10989 ft | 259 kts | 292° |
| 2026-05-01 13:09 | 52.06901 | 105.25138 | 10633 ft | 259 kts | 292° |
| 2026-05-01 13:09 | 52.07487 | 105.22379 | 10289 ft | 258 kts | 292° |
| 2026-05-01 13:09 | 52.08069 | 105.19631 | 9919 ft | 256 kts | 292° |
| 2026-05-01 13:10 | 52.08644 | 105.16909 | 9553 ft | 253 kts | 292° |
| 2026-05-01 13:10 | 52.09211 | 105.14214 | 9202 ft | 251 kts | 292° |
| 2026-05-01 13:10 | 52.09774 | 105.11534 | 8842 ft | 249 kts | 291° |
| 2026-05-01 13:10 | 52.10332 | 105.08877 | 8485 ft | 247 kts | 291° |
| 2026-05-01 13:11 | 52.10885 | 105.06234 | 8122 ft | 246 kts | 291° |
| 2026-05-01 13:11 | 52.11435 | 105.03596 | 7748 ft | 246 kts | 291° |
| 2026-05-01 13:11 | 52.11993 | 105.00975 | 7379 ft | 245 kts | 292° |
| 2026-05-01 13:11 | 52.12564 | 104.98381 | 7003 ft | 244 kts | 292° |
| 2026-05-01 13:12 | 52.13149 | 104.95750 | 6378 ft | 252 kts | 292° |
| 2026-05-01 13:12 | 52.13754 | 104.93039 | 5833 ft | 256 kts | 292° |
| 2026-05-01 13:12 | 52.14361 | 104.90318 | 5376 ft | 256 kts | 292° |
| 2026-05-01 13:12 | 52.14962 | 104.87606 | 4937 ft | 255 kts | 291° |
| 2026-05-01 13:13 | 52.15553 | 104.84924 | 4678 ft | 246 kts | 292° |
| 2026-05-01 13:13 | 52.16112 | 104.82364 | 4548 ft | 234 kts | 291° |
| 2026-05-01 13:13 | 52.16641 | 104.79933 | 4416 ft | 222 kts | 292° |
| 2026-05-01 13:13 | 52.17146 | 104.77612 | 4296 ft | 212 kts | 292° |
| 2026-05-01 13:14 | 52.17630 | 104.75387 | 4165 ft | 204 kts | 292° |
| 2026-05-01 13:14 | 52.18089 | 104.73273 | 4065 ft | 193 kts | 292° |
| 2026-05-01 13:14 | 52.18521 | 104.71283 | 4005 ft | 179 kts | 292° |
| 2026-05-01 13:14 | 52.18917 | 104.69456 | 4001 ft | 164 kts | 292° |
| 2026-05-01 13:15 | 52.19273 | 104.67810 | 4003 ft | 141 kts | 293° |
| 2026-05-01 13:15 | 52.19588 | 104.66357 | 4002 ft | 132 kts | 294° |
| 2026-05-01 13:15 | 52.19922 | 104.64992 | 4004 ft | 129 kts | 297° |
| 2026-05-01 13:15 | 52.20267 | 104.63661 | 3884 ft | 127 kts | 297° |
| 2026-05-01 13:16 | 52.20609 | 104.62345 | 3785 ft | 124 kts | 297° |
| 2026-05-01 13:16 | 52.20948 | 104.61044 | 3962 ft | 127 kts | 297° |
| 2026-05-01 13:16 | 52.21296 | 104.59703 | 4005 ft | 128 kts | 297° |
| 2026-05-01 13:17 | 52.22357 | 104.55747 | 3911 ft | 128 kts | 298° |
| 2026-05-01 13:17 | 52.22708 | 104.54447 | 3660 ft | 127 kts | 298° |
| 2026-05-01 13:18 | 52.23420 | 104.51792 | 3233 ft | 126 kts | 298° |
| 2026-05-01 13:18 | 52.23771 | 104.50479 | 3072 ft | 126 kts | 298° |
| 2026-05-01 13:18 | 52.24115 | 104.49194 | 3010 ft | 126 kts | 298° |
| 2026-05-01 13:18 | 52.24464 | 104.47853 | 2918 ft | 126 kts | 297° |
| 2026-05-01 13:19 | 52.24807 | 104.46546 | 2731 ft | 128 kts | 298° |
| 2026-05-01 13:19 | 52.25166 | 104.45199 | 2387 ft | 128 kts | 296° |
| 2026-05-01 13:19 | 52.25897 | 104.42516 | 1882 ft | 131 kts | 295° |
| 2026-05-01 13:20 | 52.26254 | 104.41180 | 1704 ft | 130 kts | 295° |
| 2026-05-01 13:20 | 52.26572 | 104.40017 | 1658 ft | 78 kts | 293° |
| 2026-05-01 13:20 | 52.26704 | 104.39525 | 1642 ft | 38 kts | 294° |
| 2026-05-01 13:21 | 52.26910 | 104.38727 | 1624 ft | 41 kts | 293° |
| 2026-05-01 13:21 | 52.27026 | 104.38293 | 1615 ft | 40 kts | 293° |
| 2026-05-01 13:21 | 52.27011 | 104.38100 | 1617 ft | 11 kts | 194° |
| 2026-05-01 13:21 | 52.26979 | 104.38073 | 1617 ft | 0 kts | 209° |
| 2026-05-01 13:25 | 52.26967 | 104.38062 | 1621 ft | 5 kts | 209° |
| 2026-05-01 13:25 | 52.26924 | 104.38022 | 1615 ft | 9 kts | 210° |
| 2026-05-01 13:26 | 52.26856 | 104.37973 | 1612 ft | 11 kts | 202° |
| 2026-05-01 13:26 | 52.26837 | 104.37961 | 1615 ft | 1 kts | 207° |
| 2026-05-01 13:26 | 52.26838 | 104.37950 | 1615 ft | 2 kts | 264° |
| 2026-05-01 13:26 | 52.26837 | 104.37891 | 1614 ft | 8 kts | 277° |
| 2026-05-01 13:27 | 52.26869 | 104.37782 | 1612 ft | 14 kts | 293° |
| 2026-05-01 13:27 | 52.26916 | 104.37608 | 1609 ft | 20 kts | 294° |
| 2026-05-01 13:27 | 52.26988 | 104.37150 | 1595 ft | 15 kts | 272° |
| 2026-05-01 13:28 | 52.27075 | 104.36974 | 1590 ft | 0 kts | 26° |